Time;durP1;ratioP1;P1;durP2;ratioP2;P2;SDS_P1;SDS_P2;PMS_P1;PMS_P2;Temp;Humidity;BMP_temperature;BMP_pressure;BME280_temperature;BME280_humidity;BME280_pressure;Samples;Min_cycle;Max_cycle;Signal;HPM_P1;HPM_P2
2021/09/17 00:01:53;;;;;;;0.05;0.05;;;16.10;99.90;;;;;;5016871;28;20065;-77
2021/09/17 00:04:19;;;;;;;0.28;0.28;;;16.10;99.90;;;;;;5017103;28;20033;-77
2021/09/17 00:06:45;;;;;;;0.17;0.17;;;16.00;99.90;;;;;;5031572;28;20033;-77
2021/09/17 00:09:11;;;;;;;0.08;0.08;;;15.80;99.90;;;;;;5015593;28;20501;-77
2021/09/17 00:11:38;;;;;;;0.10;0.10;;;15.70;99.90;;;;;;5015884;28;20021;-76
2021/09/17 00:14:03;;;;;;;0.22;0.22;;;15.70;99.90;;;;;;5016510;28;20037;-76
2021/09/17 00:16:29;;;;;;;0.20;0.20;;;15.70;99.90;;;;;;5031401;28;20482;-77
2021/09/17 00:18:55;;;;;;;0.40;0.40;;;15.80;99.90;;;;;;5016231;28;20025;-77
2021/09/17 00:21:20;;;;;;;4.90;3.45;;;15.80;99.90;;;;;;5031512;28;20056;-77
2021/09/17 00:23:46;;;;;;;3.13;2.30;;;15.60;99.90;;;;;;5015022;28;20386;-77
2021/09/17 00:26:12;;;;;;;0.40;0.40;;;15.50;99.90;;;;;;5016005;28;20033;-76
2021/09/17 00:28:38;;;;;;;0.10;0.10;;;15.40;99.90;;;;;;5016544;28;20025;-77
2021/09/17 00:31:03;;;;;;;0.10;0.10;;;15.60;99.90;;;;;;5016314;28;20072;-77
2021/09/17 00:33:30;;;;;;;0.50;0.50;;;15.80;99.90;;;;;;5015983;28;20029;-77
2021/09/17 00:35:56;;;;;;;0.13;0.13;;;15.90;99.90;;;;;;5016525;28;20026;-77
2021/09/17 00:38:22;;;;;;;0.20;0.20;;;16.00;99.90;;;;;;5014691;28;20030;-77
2021/09/17 00:40:47;;;;;;;0.25;0.25;;;16.00;99.90;;;;;;5016062;28;20033;-76
2021/09/17 00:43:13;;;;;;;2.55;1.52;;;16.00;99.90;;;;;;5016237;28;20022;-77
2021/09/17 00:45:39;;;;;;;0.20;0.20;;;15.80;99.90;;;;;;5014371;28;20026;-78
2021/09/17 00:48:05;;;;;;;0.00;0.00;;;15.50;99.90;;;;;;4998593;28;20022;-77
2021/09/17 00:50:30;;;;;;;0.52;0.52;;;15.50;99.90;;;;;;5030869;28;20521;-77
2021/09/17 00:52:56;;;;;;;0.10;0.10;;;15.70;99.90;;;;;;5014886;28;20164;-77
2021/09/17 00:55:23;;;;;;;0.00;0.00;;;15.90;99.90;;;;;;5014876;28;20080;-77
2021/09/17 00:57:49;;;;;;;0.10;0.10;;;16.00;99.90;;;;;;5014559;28;20029;-78
2021/09/17 01:00:15;;;;;;;0.15;0.15;;;16.00;99.90;;;;;;5015873;28;20036;-78
2021/09/17 01:02:41;;;;;;;0.10;0.10;;;16.00;99.90;;;;;;5015613;28;20032;-76
2021/09/17 01:05:09;;;;;;;0.60;0.60;;;16.00;99.90;;;;;;5014485;28;20045;-76
2021/09/17 01:07:35;;;;;;;0.38;0.38;;;15.90;99.90;;;;;;5014275;28;20092;-77
2021/09/17 01:10:02;;;;;;;0.10;0.10;;;15.90;99.90;;;;;;5015593;28;20470;-76
2021/09/17 01:12:28;;;;;;;0.10;0.10;;;16.00;99.90;;;;;;5014781;28;20030;-77
2021/09/17 01:14:55;;;;;;;2.28;0.95;;;15.90;99.90;;;;;;5014226;28;20072;-77
2021/09/17 01:17:21;;;;;;;0.00;0.00;;;15.90;99.90;;;;;;5013945;28;20057;-77
2021/09/17 01:19:47;;;;;;;0.10;0.10;;;15.70;99.90;;;;;;5015799;28;20030;-77
2021/09/17 01:22:13;;;;;;;3.20;0.38;;;15.70;99.90;;;;;;5014469;28;20064;-77
2021/09/17 01:24:39;;;;;;;1.65;1.40;;;15.70;99.90;;;;;;5014134;28;20030;-77
2021/09/17 01:27:06;;;;;;;1.33;1.33;;;15.60;99.90;;;;;;5015016;28;20033;-76
2021/09/17 01:29:33;;;;;;;2.42;0.55;;;15.40;99.90;;;;;;5015280;28;20100;-77
2021/09/17 01:31:59;;;;;;;0.80;0.50;;;15.40;99.90;;;;;;5013910;28;20401;-77
2021/09/17 01:34:25;;;;;;;0.75;0.63;;;15.30;99.90;;;;;;5015004;28;20021;-77
2021/09/17 01:36:52;;;;;;;0.60;0.60;;;15.20;99.90;;;;;;5014927;28;20080;-77
2021/09/17 01:39:19;;;;;;;4.03;1.27;;;15.30;99.90;;;;;;5015272;28;20060;-76
2021/09/17 01:41:47;;;;;;;0.98;0.55;;;15.30;99.90;;;;;;5014902;28;20036;-77
2021/09/17 01:44:12;;;;;;;0.85;0.63;;;15.30;99.90;;;;;;5014916;28;20022;-77
2021/09/17 01:46:39;;;;;;;1.25;0.88;;;15.30;99.90;;;;;;5014866;28;20049;-77
2021/09/17 01:49:04;;;;;;;1.65;0.55;;;15.40;99.90;;;;;;5015255;28;20049;-77
2021/09/17 01:51:30;;;;;;;0.75;0.75;;;15.50;99.90;;;;;;5030098;28;20025;-76
2021/09/17 01:53:56;;;;;;;0.20;0.20;;;15.50;99.90;;;;;;5013863;28;20026;-77
2021/09/17 01:56:23;;;;;;;0.10;0.10;;;15.60;99.90;;;;;;5014912;28;20382;-77
2021/09/17 01:58:53;;;;;;;0.20;0.20;;;15.50;99.90;;;;;;5013608;28;20036;-77
2021/09/17 02:01:19;;;;;;;0.40;0.40;;;15.30;99.90;;;;;;5014133;28;20029;-77
2021/09/17 02:03:45;;;;;;;0.10;0.10;;;15.30;99.90;;;;;;5013450;28;20029;-76
2021/09/17 02:06:21;;;;;;;0.10;0.10;;;15.20;99.90;;;;;;5014181;28;20030;-78
2021/09/17 02:08:47;;;;;;;0.10;0.10;;;15.00;99.90;;;;;;5029684;28;20359;-78
2021/09/17 02:11:13;;;;;;;0.15;0.15;;;15.20;99.90;;;;;;5014470;28;20025;-77
2021/09/17 02:13:39;;;;;;;0.10;0.10;;;15.30;99.90;;;;;;5029833;28;20028;-77
2021/09/17 02:16:05;;;;;;;0.10;0.10;;;15.30;99.90;;;;;;5029703;28;20120;-77
2021/09/17 02:18:31;;;;;;;0.70;0.70;;;15.30;99.90;;;;;;5014488;28;20038;-77
2021/09/17 02:20:57;;;;;;;0.10;0.10;;;15.20;99.90;;;;;;5014497;28;20040;-77
2021/09/17 02:23:23;;;;;;;1.45;0.73;;;15.20;99.90;;;;;;5013499;28;20034;-77
2021/09/17 02:25:49;;;;;;;0.13;0.13;;;15.20;99.90;;;;;;5014030;28;20049;-77
2021/09/17 02:28:14;;;;;;;0.10;0.10;;;15.10;99.90;;;;;;5029834;28;20110;-77
2021/09/17 02:30:40;;;;;;;0.13;0.13;;;15.20;99.90;;;;;;5014452;28;20030;-77
2021/09/17 02:33:06;;;;;;;0.10;0.10;;;15.30;99.90;;;;;;5029656;28;20026;-76
2021/09/17 02:35:32;;;;;;;0.10;0.10;;;15.30;99.90;;;;;;5014206;28;20088;-76
2021/09/17 02:37:58;;;;;;;2.05;1.95;;;15.20;99.90;;;;;;5029592;28;20398;-77
2021/09/17 02:40:24;;;;;;;0.30;0.30;;;15.30;99.90;;;;;;5012751;28;20076;-76
2021/09/17 02:42:49;;;;;;;0.65;0.65;;;15.30;99.90;;;;;;5029402;28;20026;-77
2021/09/17 02:45:15;;;;;;;0.93;0.93;;;15.30;99.90;;;;;;5014533;28;20034;-77
2021/09/17 02:47:41;;;;;;;0.47;0.32;;;15.10;99.90;;;;;;5012842;28;20026;-76
2021/09/17 02:50:08;;;;;;;0.20;0.20;;;15.00;99.90;;;;;;5029183;28;20481;-77
2021/09/17 02:52:34;;;;;;;0.68;0.68;;;14.90;99.90;;;;;;5014223;28;20442;-77
2021/09/17 02:55:00;;;;;;;0.10;0.10;;;14.90;99.90;;;;;;5012777;28;20058;-78
2021/09/17 02:57:25;;;;;;;0.17;0.17;;;15.00;99.90;;;;;;5013881;28;20053;-77
2021/09/17 02:59:51;;;;;;;0.10;0.10;;;15.10;99.90;;;;;;5012827;28;20060;-76
2021/09/17 03:02:17;;;;;;;0.10;0.10;;;15.10;99.90;;;;;;5013957;28;20032;-77
2021/09/17 03:04:43;;;;;;;0.20;0.20;;;15.10;99.90;;;;;;5013003;28;20113;-77
2021/09/17 03:07:09;;;;;;;5.15;1.45;;;15.00;99.90;;;;;;5013935;28;20109;-77
2021/09/17 03:09:35;;;;;;;0.45;0.45;;;15.00;99.90;;;;;;5013920;28;20389;-77
2021/09/17 03:12:00;;;;;;;0.10;0.10;;;15.00;99.90;;;;;;5012815;28;20026;-77
2021/09/17 03:14:26;;;;;;;0.20;0.20;;;15.00;99.90;;;;;;5015682;28;20366;-76
2021/09/17 03:16:52;;;;;;;0.20;0.20;;;14.90;99.90;;;;;;5016502;28;20474;-77
2021/09/17 03:19:18;;;;;;;0.85;0.85;;;14.90;99.90;;;;;;5017852;28;20052;-77
2021/09/17 03:21:45;;;;;;;0.47;0.47;;;14.90;99.90;;;;;;5017381;28;20069;-76
2021/09/17 03:24:11;;;;;;;1.85;1.40;;;14.80;99.90;;;;;;5016583;28;20030;-78
2021/09/17 03:26:37;;;;;;;2.38;1.55;;;14.70;99.90;;;;;;5017182;28;20018;-77
2021/09/17 03:29:03;;;;;;;3.22;0.82;;;14.60;99.90;;;;;;5017432;28;20096;-77
2021/09/17 03:31:29;;;;;;;0.10;0.10;;;14.50;99.90;;;;;;5016501;28;20104;-77
2021/09/17 03:33:58;;;;;;;0.10;0.10;;;14.40;99.90;;;;;;5017557;28;20453;-77
2021/09/17 03:36:25;;;;;;;0.10;0.10;;;14.50;99.90;;;;;;5015986;28;20026;-77
2021/09/17 03:38:50;;;;;;;0.20;0.20;;;14.50;99.90;;;;;;5016290;28;20105;-76
2021/09/17 03:41:17;;;;;;;0.40;0.40;;;14.60;99.90;;;;;;5017346;28;20058;-77
2021/09/17 03:43:42;;;;;;;0.20;0.20;;;14.80;99.90;;;;;;5017274;28;20033;-78
2021/09/17 03:46:08;;;;;;;0.10;0.10;;;14.90;99.90;;;;;;5017119;28;20473;-77
2021/09/17 03:48:34;;;;;;;0.10;0.10;;;14.80;99.90;;;;;;5015769;28;20037;-77
2021/09/17 03:50:59;;;;;;;0.10;0.10;;;14.70;99.90;;;;;;5015726;28;20057;-78
2021/09/17 03:53:25;;;;;;;0.10;0.10;;;14.80;99.90;;;;;;5017384;28;20022;-78
2021/09/17 03:55:51;;;;;;;0.10;0.10;;;14.90;99.90;;;;;;5017023;28;20022;-77
2021/09/17 03:58:18;;;;;;;3.70;3.38;;;14.90;99.90;;;;;;5016768;28;20108;-77
2021/09/17 04:00:43;;;;;;;0.10;0.10;;;14.90;99.90;;;;;;5032219;28;20083;-77
2021/09/17 04:03:09;;;;;;;0.10;0.10;;;15.00;99.90;;;;;;5016391;28;20033;-78
2021/09/17 04:05:35;;;;;;;1.17;1.08;;;15.00;99.90;;;;;;5015734;28;20034;-77
2021/09/17 04:08:01;;;;;;;0.10;0.10;;;14.90;99.90;;;;;;5016760;28;20026;-77
2021/09/17 04:10:27;;;;;;;0.10;0.10;;;14.90;99.90;;;;;;5015801;28;20470;-77
2021/09/17 04:12:52;;;;;;;0.10;0.10;;;14.70;99.90;;;;;;5015304;28;20026;-77
2021/09/17 04:15:18;;;;;;;0.10;0.10;;;14.70;99.90;;;;;;5016368;28;20026;-77
2021/09/17 04:17:44;;;;;;;0.80;0.80;;;14.70;99.90;;;;;;5015089;28;20470;-77
2021/09/17 04:20:11;;;;;;;0.13;0.13;;;14.90;99.90;;;;;;5015103;28;20048;-77
2021/09/17 04:22:37;;;;;;;0.10;0.10;;;14.80;99.90;;;;;;5016724;28;20033;-77
2021/09/17 04:25:04;;;;;;;0.10;0.10;;;14.90;99.90;;;;;;5015882;28;20026;-77
2021/09/17 04:27:30;;;;;;;0.10;0.10;;;14.80;99.90;;;;;;5016210;28;20104;-77
2021/09/17 04:29:55;;;;;;;0.10;0.10;;;14.80;99.90;;;;;;5016689;28;20556;-78
2021/09/17 04:32:22;;;;;;;0.10;0.10;;;14.80;99.90;;;;;;5031608;28;20032;-77
2021/09/17 04:34:47;;;;;;;21.90;9.13;;;14.70;99.90;;;;;;5015134;28;20041;-77
2021/09/17 04:37:13;;;;;;;0.38;0.38;;;14.80;99.90;;;;;;4999193;28;20034;-78
2021/09/17 04:39:39;;;;;;;0.10;0.10;;;14.70;99.90;;;;;;5031486;28;20022;-77
2021/09/17 04:42:04;;;;;;;0.43;0.30;;;14.70;99.90;;;;;;5016380;28;20049;-77
2021/09/17 04:44:30;;;;;;;0.10;0.10;;;14.60;99.90;;;;;;5015970;28;20022;-78
2021/09/17 04:46:56;;;;;;;0.10;0.10;;;14.50;99.90;;;;;;5031640;28;20097;-77
2021/09/17 04:49:22;;;;;;;0.40;0.40;;;14.50;99.90;;;;;;5016244;28;20087;-77
2021/09/17 04:51:48;;;;;;;0.70;0.35;;;14.40;99.90;;;;;;5016120;28;20179;-76
2021/09/17 04:54:14;;;;;;;0.10;0.10;;;14.40;99.90;;;;;;5031293;28;20030;-77
2021/09/17 04:56:40;;;;;;;0.20;0.20;;;14.40;99.90;;;;;;5013265;28;20487;-77
2021/09/17 04:59:06;;;;;;;0.15;0.15;;;14.50;99.90;;;;;;5015812;28;20393;-76
2021/09/17 05:01:32;;;;;;;0.10;0.10;;;14.40;99.90;;;;;;5030998;28;20026;-77
2021/09/17 05:03:58;;;;;;;0.10;0.10;;;14.40;99.90;;;;;;5031174;28;20034;-76
2021/09/17 05:06:23;;;;;;;0.52;0.52;;;14.60;99.90;;;;;;5014414;28;20543;-77
2021/09/17 05:08:49;;;;;;;10.27;3.70;;;14.70;99.90;;;;;;5014506;28;20033;-78
2021/09/17 05:11:15;;;;;;;0.20;0.20;;;14.70;99.90;;;;;;5015498;28;20055;-77
2021/09/17 05:13:41;;;;;;;0.20;0.20;;;14.70;99.90;;;;;;5015877;28;20026;-77
2021/09/17 05:16:07;;;;;;;0.10;0.10;;;14.60;99.90;;;;;;5015727;28;20076;-77
2021/09/17 05:18:33;;;;;;;0.77;0.77;;;14.60;99.90;;;;;;5014447;28;20030;-77
2021/09/17 05:20:58;;;;;;;0.10;0.10;;;14.70;99.90;;;;;;5030320;28;20164;-77
2021/09/17 05:23:24;;;;;;;0.10;0.10;;;14.80;99.90;;;;;;5016038;28;20021;-77
2021/09/17 05:25:50;;;;;;;1.23;1.13;;;14.80;99.90;;;;;;5015333;28;20022;-78
2021/09/17 05:28:16;;;;;;;0.10;0.10;;;14.70;99.90;;;;;;5014221;28;20029;-77
2021/09/17 05:30:41;;;;;;;0.10;0.10;;;14.60;99.90;;;;;;5015464;28;20022;-77
2021/09/17 05:33:07;;;;;;;0.52;0.52;;;14.50;99.90;;;;;;5015579;28;20405;-77
2021/09/17 05:35:33;;;;;;;0.10;0.10;;;14.50;99.90;;;;;;5014117;28;20367;-77
2021/09/17 05:37:59;;;;;;;6.90;6.22;;;14.40;99.90;;;;;;5014033;28;20030;-78
2021/09/17 05:40:24;;;;;;;0.15;0.15;;;14.50;99.90;;;;;;5013823;28;20064;-78
2021/09/17 05:42:50;;;;;;;0.73;0.73;;;14.50;99.90;;;;;;5014945;28;20026;-78
2021/09/17 05:45:16;;;;;;;0.98;0.90;;;14.60;99.90;;;;;;5029811;28;20018;-77
2021/09/17 05:47:43;;;;;;;0.15;0.15;;;14.60;99.90;;;;;;5013747;28;20058;-77
2021/09/17 05:50:09;;;;;;;0.10;0.10;;;14.70;99.90;;;;;;5041238;23;20042;-77
2021/09/17 05:52:35;;;;;;;0.15;0.15;;;14.70;99.90;;;;;;5033547;28;20037;-78
2021/09/17 05:55:01;;;;;;;0.10;0.10;;;14.60;99.90;;;;;;5015895;28;20034;-78
2021/09/17 05:57:26;;;;;;;0.10;0.10;;;14.70;99.90;;;;;;5032284;28;20405;-78
2021/09/17 05:59:52;;;;;;;0.17;0.17;;;14.50;99.90;;;;;;5032101;28;20025;-77
2021/09/17 06:02:18;;;;;;;0.20;0.20;;;14.30;99.90;;;;;;5033346;28;20115;-77
2021/09/17 06:04:43;;;;;;;0.13;0.13;;;14.20;99.90;;;;;;5033120;28;20017;-77
2021/09/17 06:07:09;;;;;;;0.20;0.20;;;14.30;99.90;;;;;;5032624;28;20025;-77
2021/09/17 06:09:36;;;;;;;0.00;0.00;;;14.40;99.90;;;;;;5032708;28;20037;-81
2021/09/17 06:12:03;;;;;;;0.20;0.20;;;14.60;99.90;;;;;;5035227;28;20048;-80
2021/09/17 06:14:29;;;;;;;0.30;0.20;;;14.60;99.90;;;;;;5018152;28;20072;-80
2021/09/17 06:16:54;;;;;;;0.08;0.08;;;14.50;99.90;;;;;;5035445;28;20018;-80
2021/09/17 06:19:20;;;;;;;0.10;0.10;;;14.50;99.90;;;;;;5035034;28;20060;-80
2021/09/17 06:21:46;;;;;;;0.10;0.10;;;14.60;99.90;;;;;;5017329;28;20560;-80
2021/09/17 06:24:12;;;;;;;0.20;0.20;;;14.60;99.90;;;;;;5016667;28;20028;-78
2021/09/17 06:26:37;;;;;;;0.10;0.10;;;14.70;99.90;;;;;;5032837;28;20029;-77
2021/09/17 06:29:07;;;;;;;0.10;0.10;;;14.70;99.90;;;;;;5033137;28;20032;-78
2021/09/17 06:31:37;;;;;;;0.10;0.10;;;14.80;99.90;;;;;;5031676;28;20108;-77
2021/09/17 06:34:04;;;;;;;0.10;0.10;;;15.00;99.90;;;;;;5031357;28;20118;-77
2021/09/17 06:36:30;;;;;;;0.45;0.45;;;15.00;99.90;;;;;;5032428;28;20036;-77
2021/09/17 06:38:56;;;;;;;0.13;0.13;;;14.80;99.90;;;;;;5030855;28;20416;-78
2021/09/17 06:41:22;;;;;;;0.20;0.20;;;14.60;99.90;;;;;;5030495;28;20029;-77
2021/09/17 06:43:48;;;;;;;0.10;0.10;;;14.70;99.90;;;;;;5019992;28;20026;-77
2021/09/17 06:46:14;;;;;;;0.10;0.10;;;14.70;99.90;;;;;;5030574;28;20370;-78
2021/09/17 06:48:41;;;;;;;0.10;0.10;;;14.70;99.90;;;;;;5016875;28;20117;-77
2021/09/17 06:51:07;;;;;;;0.10;0.10;;;14.80;99.90;;;;;;5015397;28;20026;-78
2021/09/17 06:53:33;;;;;;;0.13;0.13;;;14.90;99.90;;;;;;5016635;28;20045;-78
2021/09/17 06:55:59;;;;;;;0.38;0.20;;;15.00;99.90;;;;;;5011770;28;20033;-79
2021/09/17 06:58:34;;;;;;;1.23;0.95;;;15.10;99.90;;;;;;5014044;28;20390;-82
2021/09/17 07:01:01;;;;;;;0.20;0.20;;;15.00;99.90;;;;;;5015978;28;20033;-81
2021/09/17 07:03:27;;;;;;;0.10;0.10;;;15.10;99.90;;;;;;5018305;28;20389;-81
2021/09/17 07:05:54;;;;;;;1.77;1.55;;;15.30;99.90;;;;;;5034104;28;20026;-78
2021/09/17 07:08:20;;;;;;;0.20;0.20;;;15.30;99.90;;;;;;5032555;28;20477;-78
2021/09/17 07:10:46;;;;;;;0.35;0.35;;;15.30;99.90;;;;;;5034263;28;20037;-78
2021/09/17 07:13:13;;;;;;;1.48;1.38;;;15.30;99.90;;;;;;5014693;28;20370;-78
2021/09/17 07:15:39;;;;;;;0.95;0.95;;;15.40;99.90;;;;;;5005090;28;20112;-75
2021/09/17 07:18:06;;;;;;;0.10;0.10;;;15.50;99.90;;;;;;5016663;28;20030;-76
2021/09/17 07:20:33;;;;;;;0.10;0.10;;;15.60;99.90;;;;;;5006005;28;20061;-76
2021/09/17 07:22:59;;;;;;;0.10;0.10;;;15.70;99.90;;;;;;5024993;28;20026;-78
2021/09/17 07:25:24;;;;;;;0.35;0.35;;;15.80;99.90;;;;;;5005880;28;20026;-77
2021/09/17 07:27:50;;;;;;;0.80;0.47;;;15.80;99.90;;;;;;5022263;28;20453;-78
2021/09/17 07:30:17;;;;;;;0.10;0.10;;;15.70;99.90;;;;;;5018163;28;20029;-80
2021/09/17 07:32:43;;;;;;;0.35;0.32;;;15.80;99.90;;;;;;5025950;28;20026;-81
2021/09/17 07:35:09;;;;;;;0.20;0.20;;;15.60;99.90;;;;;;5025789;28;20511;-81
2021/09/17 07:37:35;;;;;;;0.10;0.10;;;15.20;99.90;;;;;;5025487;28;20099;-81
2021/09/17 07:40:02;;;;;;;2.92;1.48;;;15.10;99.90;;;;;;5001729;28;20096;-81
2021/09/17 07:42:28;;;;;;;0.13;0.13;;;15.00;99.90;;;;;;5018010;28;20113;-81
2021/09/17 07:44:53;;;;;;;0.10;0.10;;;15.10;99.90;;;;;;5013593;28;20107;-82
2021/09/17 07:47:19;;;;;;;0.20;0.20;;;15.30;99.90;;;;;;4996690;28;20022;-82
2021/09/17 07:49:45;;;;;;;0.43;0.43;;;15.50;99.90;;;;;;5027311;28;20037;-82
2021/09/17 07:52:11;;;;;;;0.55;0.55;;;15.60;99.90;;;;;;5001949;28;20026;-82
2021/09/17 07:54:36;;;;;;;0.30;0.30;;;15.80;99.90;;;;;;5021270;28;20031;-81
2021/09/17 07:57:03;;;;;;;0.40;0.40;;;15.60;99.90;;;;;;5012697;28;20452;-82
2021/09/17 07:59:29;;;;;;;1.20;1.08;;;15.50;99.90;;;;;;5023274;28;20026;-82
2021/09/17 08:01:55;;;;;;;0.38;0.38;;;15.60;99.90;;;;;;5023206;28;20022;-82
2021/09/17 08:04:21;;;;;;;0.20;0.20;;;15.70;99.90;;;;;;5006292;28;20045;-82
2021/09/17 08:06:46;;;;;;;2.60;2.15;;;15.50;99.90;;;;;;5026667;28;20022;-81
2021/09/17 08:09:12;;;;;;;0.10;0.10;;;15.30;99.90;;;;;;5035616;28;20024;-81
2021/09/17 08:11:39;;;;;;;0.57;0.57;;;15.30;99.90;;;;;;5025961;28;20033;-81
2021/09/17 08:14:04;;;;;;;0.28;0.28;;;15.30;99.90;;;;;;5026898;28;20040;-81
2021/09/17 08:16:30;;;;;;;0.52;0.45;;;15.30;99.90;;;;;;5035419;28;20358;-81
2021/09/17 08:18:56;;;;;;;0.10;0.10;;;15.50;99.90;;;;;;5037534;28;20396;-82
2021/09/17 08:21:22;;;;;;;0.10;0.10;;;15.50;99.90;;;;;;5027482;28;20022;-81
2021/09/17 08:23:47;;;;;;;0.30;0.30;;;15.60;99.90;;;;;;5012477;28;20400;-81
2021/09/17 08:26:13;;;;;;;0.20;0.20;;;15.70;99.90;;;;;;5026227;28;20029;-82
2021/09/17 08:28:39;;;;;;;0.10;0.10;;;15.80;99.90;;;;;;5028439;28;20404;-82
2021/09/17 08:31:05;;;;;;;5.72;1.10;;;15.80;99.90;;;;;;5013223;28;20036;-81
2021/09/17 08:33:32;;;;;;;4.38;1.85;;;15.60;99.90;;;;;;5020040;28;20029;-82
2021/09/17 08:35:58;;;;;;;0.35;0.35;;;15.40;99.90;;;;;;5028149;28;20330;-78
2021/09/17 08:38:24;;;;;;;0.10;0.10;;;15.40;99.90;;;;;;5007329;28;20040;-77
2021/09/17 08:40:54;;;;;;;0.13;0.13;;;15.80;99.90;;;;;;5023699;28;20413;-83
2021/09/17 08:43:21;;;;;;;0.10;0.10;;;15.90;99.90;;;;;;5030817;28;20045;-81
2021/09/17 08:45:47;;;;;;;0.75;0.75;;;16.10;99.90;;;;;;5024887;28;20045;-82
2021/09/17 08:48:14;;;;;;;2.90;1.60;;;16.20;99.90;;;;;;5010158;28;20477;-82
2021/09/17 08:50:40;;;;;;;0.10;0.10;;;16.20;99.90;;;;;;5013841;28;20030;-82
2021/09/17 08:53:06;;;;;;;3.95;0.50;;;15.80;99.90;;;;;;5034045;28;20035;-82
2021/09/17 08:55:32;;;;;;;1.38;0.75;;;15.80;99.90;;;;;;5006236;28;20116;-81
2021/09/17 08:57:58;;;;;;;0.10;0.10;;;15.90;99.90;;;;;;5028947;28;20034;-83
2021/09/17 09:00:36;;;;;;;0.52;0.52;;;15.80;99.90;;;;;;5032340;28;20032;-82
2021/09/17 09:03:02;;;;;;;1.08;1.08;;;16.00;99.90;;;;;;5034704;28;20022;-81
2021/09/17 09:05:31;;;;;;;2.97;1.17;;;15.80;99.90;;;;;;5025700;28;20390;-82
2021/09/17 09:07:58;;;;;;;0.30;0.30;;;15.90;99.90;;;;;;5012931;28;20109;-82
2021/09/17 09:10:24;;;;;;;0.10;0.10;;;16.00;99.90;;;;;;5011790;28;20116;-82
2021/09/17 09:12:56;;;;;;;1.10;1.05;;;16.00;99.90;;;;;;5027232;28;20018;-81
2021/09/17 09:15:28;;;;;;;1.35;0.50;;;15.90;99.90;;;;;;5011228;28;20026;-82
2021/09/17 09:17:57;;;;;;;0.15;0.15;;;16.00;99.90;;;;;;5026991;28;20040;-82
2021/09/17 09:20:40;;;;;;;0.10;0.10;;;16.20;99.90;;;;;;5028803;28;20037;-81
2021/09/17 09:23:07;;;;;;;0.40;0.40;;;16.30;99.90;;;;;;5016452;28;20030;-82
2021/09/17 09:25:54;;;;;;;0.38;0.38;;;16.00;99.90;;;;;;5032472;28;20029;-82
2021/09/17 09:28:32;;;;;;;8.95;2.60;;;16.00;99.90;;;;;;5032471;28;20040;-82
2021/09/17 09:31:05;;;;;;;0.52;0.38;;;16.20;99.90;;;;;;5030091;28;20049;-82
2021/09/17 09:33:42;;;;;;;0.75;0.75;;;16.30;99.90;;;;;;5024266;28;20030;-81
2021/09/17 09:36:14;;;;;;;0.10;0.10;;;16.40;99.90;;;;;;5005474;28;20061;-82
2021/09/17 09:38:43;;;;;;;0.10;0.10;;;16.60;99.90;;;;;;5019310;28;20493;-81
2021/09/17 09:41:11;;;;;;;3.13;1.65;;;16.80;99.90;;;;;;4998980;28;20034;-82
2021/09/17 09:43:40;;;;;;;0.10;0.10;;;16.70;99.90;;;;;;4999272;28;20052;-81
2021/09/17 09:46:21;;;;;;;1.08;1.08;;;16.70;99.90;;;;;;4997965;28;20030;-82
2021/09/17 09:48:59;;;;;;;0.65;0.65;;;16.80;99.90;;;;;;5012740;28;20493;-81
2021/09/17 09:51:26;;;;;;;0.10;0.10;;;17.10;99.90;;;;;;4997325;28;20416;-82
2021/09/17 09:53:52;;;;;;;0.30;0.30;;;17.30;99.90;;;;;;5013577;28;20026;-81
2021/09/17 09:56:21;;;;;;;0.10;0.10;;;17.30;99.90;;;;;;5014919;28;20026;-81
2021/09/17 09:58:49;;;;;;;2.22;1.17;;;17.20;99.90;;;;;;4997804;28;20575;-81
2021/09/17 10:01:21;;;;;;;0.20;0.20;;;16.90;99.90;;;;;;5014674;28;20080;-81
2021/09/17 10:03:48;;;;;;;0.10;0.10;;;16.80;99.90;;;;;;5000686;28;20473;-82
2021/09/17 10:06:15;;;;;;;0.10;0.10;;;16.90;99.90;;;;;;4996937;28;20026;-78
2021/09/17 10:08:41;;;;;;;0.15;0.15;;;17.00;99.90;;;;;;5015505;28;20022;-79
2021/09/17 10:11:07;;;;;;;0.28;0.28;;;17.00;99.90;;;;;;5013698;28;20041;-78
2021/09/17 10:13:34;;;;;;;0.10;0.10;;;17.00;99.90;;;;;;5014111;28;20053;-78
2021/09/17 10:15:59;;;;;;;0.65;0.65;;;17.00;99.90;;;;;;5013414;28;20030;-78
2021/09/17 10:18:26;;;;;;;0.30;0.30;;;16.70;99.90;;;;;;5013537;28;20037;-78
2021/09/17 10:20:52;;;;;;;0.10;0.10;;;16.80;99.90;;;;;;5014815;28;20072;-78
2021/09/17 10:23:30;;;;;;;0.20;0.20;;;17.10;99.90;;;;;;5014073;28;20026;-79
2021/09/17 10:26:04;;;;;;;0.10;0.10;;;17.30;99.90;;;;;;4997354;28;20026;-79
2021/09/17 10:28:31;;;;;;;0.10;0.10;;;17.40;99.90;;;;;;5014948;28;20018;-78
2021/09/17 10:31:15;;;;;;;0.10;0.10;;;17.30;99.90;;;;;;5013486;28;20030;-78
2021/09/17 10:33:40;;;;;;;0.20;0.20;;;17.40;99.90;;;;;;4998071;28;20041;-78
2021/09/17 10:36:07;;;;;;;0.10;0.10;;;17.50;99.90;;;;;;5013375;28;20026;-78
2021/09/17 10:38:34;;;;;;;0.10;0.10;;;17.40;99.90;;;;;;4997812;28;20030;-78
2021/09/17 10:41:01;;;;;;;0.13;0.13;;;17.50;99.90;;;;;;5014718;28;20040;-78
2021/09/17 10:43:46;;;;;;;0.10;0.10;;;17.30;99.90;;;;;;5013028;28;20050;-78
2021/09/17 10:46:21;;;;;;;0.20;0.20;;;17.40;99.90;;;;;;4996842;28;20029;-78
2021/09/17 10:48:51;;;;;;;0.10;0.10;;;17.40;99.90;;;;;;5014733;28;20509;-77
2021/09/17 10:51:38;;;;;;;1.80;1.70;;;17.50;99.90;;;;;;5012682;28;20040;-79
2021/09/17 10:54:19;;;;;;;0.28;0.28;;;17.70;99.90;;;;;;5013264;28;20029;-78
2021/09/17 10:56:48;;;;;;;0.10;0.10;;;17.80;99.90;;;;;;5012906;28;20172;-78
2021/09/17 10:59:25;;;;;;;0.10;0.10;;;18.00;99.90;;;;;;4996969;28;20038;-78
2021/09/17 11:02:06;;;;;;;0.35;0.35;;;18.10;99.90;;;;;;5012848;28;20038;-78
2021/09/17 11:04:37;;;;;;;0.38;0.30;;;18.10;99.20;;;;;;5013792;28;20101;-78
2021/09/17 11:07:21;;;;;;;0.10;0.10;;;17.80;99.90;;;;;;5013609;28;20160;-78
2021/09/17 11:09:52;;;;;;;0.10;0.10;;;17.70;99.90;;;;;;5013488;28;20034;-78
2021/09/17 11:12:19;;;;;;;0.10;0.10;;;17.80;99.20;;;;;;5012867;28;20030;-78
2021/09/17 11:15:09;;;;;;;0.10;0.10;;;17.80;99.90;;;;;;5013190;28;20053;-78
2021/09/17 11:17:38;;;;;;;0.20;0.20;;;18.00;99.90;;;;;;5014535;28;20025;-78
2021/09/17 11:20:06;;;;;;;0.30;0.30;;;18.10;99.10;;;;;;5013286;28;20026;-78
2021/09/17 11:22:53;;;;;;;0.10;0.10;;;18.00;97.60;;;;;;5012916;28;20529;-78
2021/09/17 11:25:24;;;;;;;0.10;0.10;;;17.90;97.00;;;;;;5013143;28;20584;-78
2021/09/17 11:27:51;;;;;;;0.10;0.10;;;17.70;97.00;;;;;;5012975;28;20048;-78
2021/09/17 11:30:20;;;;;;;0.77;0.77;;;17.90;97.90;;;;;;5013437;28;20441;-78
2021/09/17 11:32:46;;;;;;;0.10;0.10;;;17.50;99.40;;;;;;5014440;28;20056;-78
2021/09/17 11:35:12;;;;;;;0.28;0.28;;;17.50;99.90;;;;;;5016679;28;20389;-78
2021/09/17 11:37:46;;;;;;;0.20;0.20;;;17.70;99.80;;;;;;5016557;28;20117;-79
2021/09/17 11:40:12;;;;;;;0.17;0.17;;;17.90;99.40;;;;;;5000034;28;20032;-78
2021/09/17 11:42:38;;;;;;;0.45;0.45;;;18.00;97.90;;;;;;5000948;28;20429;-79
2021/09/17 11:45:18;;;;;;;0.10;0.10;;;17.60;97.70;;;;;;5016745;28;20022;-78
2021/09/17 11:47:49;;;;;;;0.20;0.20;;;17.50;99.60;;;;;;5022097;28;20439;-79
2021/09/17 11:50:16;;;;;;;0.03;0.03;;;17.80;99.10;;;;;;5017251;28;20029;-79
2021/09/17 11:52:45;;;;;;;0.10;0.10;;;18.10;98.50;;;;;;5025035;28;20027;-78
2021/09/17 11:55:20;;;;;;;0.10;0.10;;;18.40;97.40;;;;;;5030569;28;20029;-78
2021/09/17 11:57:48;;;;;;;0.95;0.95;;;18.40;96.30;;;;;;5016518;28;20449;-79
2021/09/17 12:00:21;;;;;;;0.15;0.15;;;18.50;97.20;;;;;;5000171;28;20713;-79
2021/09/17 12:02:49;;;;;;;0.10;0.10;;;18.60;95.70;;;;;;5001096;28;20056;-82
2021/09/17 12:05:23;;;;;;;0.10;0.10;;;18.60;96.20;;;;;;5020320;28;20187;-83
2021/09/17 12:07:50;;;;;;;0.50;0.50;;;18.60;95.30;;;;;;5020042;28;20025;-81
2021/09/17 12:10:35;;;;;;;0.20;0.20;;;18.70;95.60;;;;;;5037484;28;20029;-85
2021/09/17 12:13:10;;;;;;;0.17;0.17;;;18.40;95.30;;;;;;5018950;28;20121;-85
2021/09/17 12:15:45;;;;;;;0.20;0.20;;;18.40;95.90;;;;;;5034891;28;20029;-85
2021/09/17 12:18:22;;;;;;;0.28;0.28;;;18.60;96.40;;;;;;5019450;28;20017;-85
2021/09/17 12:20:57;;;;;;;0.30;0.30;;;18.40;97.00;;;;;;5030918;28;20018;-83
2021/09/17 12:23:39;;;;;;;0.65;0.65;;;18.40;96.10;;;;;;5001164;28;20018;-83
2021/09/17 12:26:18;;;;;;;0.08;0.08;;;18.00;94.90;;;;;;5019116;28;20076;-82
2021/09/17 12:28:51;;;;;;;0.30;0.30;;;17.80;96.70;;;;;;5001853;28;20022;-82
2021/09/17 12:31:35;;;;;;;0.10;0.10;;;17.70;97.30;;;;;;5019552;28;20388;-82
2021/09/17 12:34:09;;;;;;;0.10;0.10;;;17.90;98.10;;;;;;5018972;28;20363;-82
2021/09/17 12:36:35;;;;;;;0.43;0.32;;;18.20;97.00;;;;;;5018613;28;20022;-83
2021/09/17 12:39:04;;;;;;;0.10;0.10;;;18.10;96.90;;;;;;5001156;28;20518;-83
2021/09/17 12:41:30;;;;;;;0.52;0.52;;;18.10;96.80;;;;;;5018071;28;20030;-82
2021/09/17 12:44:12;;;;;;;0.10;0.10;;;18.20;96.60;;;;;;5017775;28;20025;-83
2021/09/17 12:46:47;;;;;;;0.10;0.10;;;17.90;96.70;;;;;;5019696;28;20029;-82
2021/09/17 12:49:17;;;;;;;0.40;0.40;;;18.10;96.70;;;;;;5000263;28;20053;-83
2021/09/17 12:51:59;;;;;;;0.10;0.10;;;18.20;95.80;;;;;;5016493;28;20390;-83